createdAt,value
2022-08-07T00:02:40.430Z,102281.81
2022-08-07T00:05:03.959Z,102278.78
2022-08-07T00:07:40.360Z,102280.84
2022-08-07T00:10:30.448Z,102279.16
2022-08-07T00:13:02.100Z,102280.47
2022-08-07T00:15:35.869Z,102277.69
2022-08-07T00:18:03.757Z,102275.91
2022-08-07T00:20:34.488Z,102274.09
2022-08-07T00:23:03.062Z,102283.91
2022-08-07T00:25:37.508Z,102274.31
2022-08-07T00:28:08.495Z,102274.09
2022-08-07T00:30:37.693Z,102268.63
2022-08-07T00:33:05.689Z,102272.16
2022-08-07T00:35:39.258Z,102274.41
2022-08-07T00:38:06.501Z,102268.84
2022-08-07T00:40:39.837Z,102268.84
2022-08-07T00:43:10.535Z,102271.59
2022-08-07T00:46:00.323Z,102266.38
2022-08-07T00:48:33.511Z,102258.78
2022-08-07T00:51:02.808Z,102268.28
2022-08-07T00:53:38.925Z,102257.63
2022-08-07T00:56:20.255Z,102263.03
2022-08-07T00:58:49.588Z,102264.88
2022-08-07T01:01:18.766Z,102260.09
2022-08-07T01:03:56.283Z,102264.72
2022-08-07T01:06:29.221Z,102269.47
2022-08-07T01:08:58.557Z,102262.38
2022-08-07T01:12:23.931Z,102265.56
2022-08-07T01:14:28.535Z,102268.81
2022-08-07T01:16:56.915Z,102263.75
2022-08-07T01:19:32.524Z,102265.09
2022-08-07T01:22:03.661Z,102261.41
2022-08-07T01:24:36.151Z,102268.19
2022-08-07T01:27:03.835Z,102267.94
2022-08-07T01:29:33.925Z,102271.16
2022-08-07T01:32:12.265Z,102255.97
2022-08-07T01:34:44.520Z,102262.94
2022-08-07T01:37:17.261Z,102259.22
2022-08-07T01:39:49.472Z,102253.75
2022-08-07T01:42:38.115Z,102254.25
2022-08-07T01:45:18.301Z,102252.09
2022-08-07T01:48:18.476Z,102256.53
2022-08-07T01:50:43.147Z,102261.19
2022-08-07T01:53:11.752Z,102252.22
2022-08-07T01:55:57.038Z,102256.50
2022-08-07T01:58:27.395Z,102246.44
2022-08-07T02:01:24.985Z,102246.28
2022-08-07T02:04:02.348Z,102259.56
2022-08-07T02:06:34.533Z,102255.84
2022-08-07T02:09:05.372Z,102250.44
2022-08-07T02:12:03.683Z,102253.69
2022-08-07T02:14:35.783Z,102246.66
2022-08-07T02:17:04.137Z,102236.16
2022-08-07T02:20:06.815Z,102242.53
2022-08-07T02:22:25.620Z,102233.06
2022-08-07T02:24:59.596Z,102237.88
2022-08-07T02:27:34.295Z,102231.97
2022-08-07T02:30:07.137Z,102235.75
2022-08-07T02:32:39.547Z,102228.38
2022-08-07T02:36:27.254Z,102240.59
2022-08-07T02:38:22.821Z,102238.88
2022-08-07T02:41:00.072Z,102230.25
2022-08-07T02:43:28.602Z,102231.97
2022-08-07T02:46:02.759Z,102225.16
2022-08-07T02:48:34.509Z,102224.31
2022-08-07T02:51:28.859Z,102231.22
2022-08-07T02:54:03.207Z,102229.78
2022-08-07T02:56:33.230Z,102225.19
2022-08-07T02:59:04.733Z,102227.81
2022-08-07T03:01:40.062Z,102235.63
2022-08-07T03:04:12.432Z,102221.47
2022-08-07T03:06:48.033Z,102228.22
2022-08-07T03:09:43.483Z,102229.69
2022-08-07T03:12:05.317Z,102229.84
2022-08-07T03:14:36.230Z,102233.44
2022-08-07T03:17:08.766Z,102232.31
2022-08-07T03:19:37.131Z,102230.72
2022-08-07T03:22:07.145Z,102233.88
2022-08-07T03:24:36.740Z,102227.56
2022-08-07T03:27:10.474Z,102233.00
2022-08-07T03:29:57.129Z,102232.84
2022-08-07T03:32:32.218Z,102231.84
2022-08-07T03:35:18.069Z,102229.72
2022-08-07T03:37:53.943Z,102222.69
2022-08-07T03:40:27.454Z,102231.00
2022-08-07T03:43:04.114Z,102227.41
2022-08-07T03:45:43.513Z,102231.59
2022-08-07T03:48:20.075Z,102230.00
2022-08-07T03:50:56.115Z,102237.59
2022-08-07T03:53:49.883Z,102235.75
2022-08-07T03:56:18.567Z,102233.03
2022-08-07T03:59:08.993Z,102233.31
2022-08-07T04:01:45.434Z,102235.59
2022-08-07T04:04:17.379Z,102232.44
2022-08-07T04:06:50.872Z,102239.31
2022-08-07T04:09:19.977Z,102236.03
2022-08-07T04:12:26.570Z,102241.03
2022-08-07T04:14:43.879Z,102245.19
2022-08-07T04:17:20.902Z,102247.06
2022-08-07T04:20:10.245Z,102251.06
2022-08-07T04:22:39.246Z,102248.47
2022-08-07T04:25:23.515Z,102250.16
2022-08-07T04:27:59.447Z,102260.19
2022-08-07T04:30:35.790Z,102257.78
2022-08-07T04:33:15.478Z,102259.34
2022-08-07T04:35:50.545Z,102260.63
2022-08-07T04:38:22.973Z,102264.19
2022-08-07T04:40:56.650Z,102262.59
2022-08-07T04:44:12.023Z,102264.19
2022-08-07T04:46:59.697Z,102260.47
2022-08-07T04:50:05.807Z,102263.06
2022-08-07T04:52:55.889Z,102266.31
2022-08-07T04:58:14.161Z,102261.34
2022-08-07T05:01:50.454Z,102262.69
2022-08-07T05:04:59.531Z,102265.66
2022-08-07T05:08:10.472Z,102261.28
2022-08-07T05:10:49.308Z,102272.25
2022-08-07T05:14:52.255Z,102270.19
2022-08-07T05:16:29.469Z,102283.56
2022-08-07T05:19:07.076Z,102274.47
2022-08-07T05:21:59.813Z,102272.56
2022-08-07T05:24:30.372Z,102276.47
2022-08-07T05:27:00.457Z,102278.63
2022-08-07T05:29:38.814Z,102277.69
2022-08-07T05:32:19.600Z,102283.97
2022-08-07T05:34:48.756Z,102284.44
2022-08-07T05:37:25.491Z,102275.97
2022-08-07T05:40:13.581Z,102282.56
2022-08-07T05:42:40.084Z,102275.81
2022-08-07T05:45:26.196Z,102277.19
2022-08-07T05:48:01.459Z,102283.41
2022-08-07T05:50:32.061Z,102274.94
2022-08-07T05:53:02.790Z,102279.75
2022-08-07T05:56:03.030Z,102278.09
2022-08-07T05:58:36.350Z,102275.72
2022-08-07T06:01:10.496Z,102265.84
2022-08-07T06:04:01.224Z,102271.41
2022-08-07T06:06:29.386Z,102265.28
2022-08-07T06:08:59.248Z,102260.72
2022-08-07T06:11:31.687Z,102264.47
2022-08-07T06:14:12.620Z,102263.28
2022-08-07T06:16:56.041Z,102265.31
2022-08-07T06:19:52.169Z,102263.56
2022-08-07T06:22:24.051Z,102263.50
2022-08-07T06:24:58.476Z,102267.25
2022-08-07T06:27:44.502Z,102268.22
2022-08-07T06:30:32.427Z,102272.97
2022-08-07T06:33:15.582Z,102266.03
2022-08-07T06:35:48.077Z,102271.63
2022-08-07T06:38:33.415Z,102272.78
2022-08-07T06:41:07.006Z,102270.63
2022-08-07T06:43:39.277Z,102277.88
2022-08-07T06:46:12.332Z,102276.34
2022-08-07T06:48:42.131Z,102284.53
2022-08-07T06:51:31.366Z,102273.56
2022-08-07T06:55:33.772Z,102268.75
2022-08-07T06:56:59.358Z,102272.84
2022-08-07T07:00:13.122Z,102279.66
2022-08-07T07:02:48.581Z,102273.88
2022-08-07T07:06:03.226Z,102279.75
2022-08-07T07:08:18.720Z,102280.06
2022-08-07T07:10:56.971Z,102279.16
2022-08-07T07:13:58.548Z,102277.19
2022-08-07T07:16:45.240Z,102283.28
2022-08-07T07:19:56.263Z,102274.53
2022-08-07T07:22:34.163Z,102279.34
2022-08-07T07:26:30.877Z,102275.41
2022-08-07T07:28:07.761Z,102273.59
2022-08-07T07:31:10.692Z,102274.63
2022-08-07T07:33:39.475Z,102270.72
2022-08-07T07:36:12.830Z,102275.72
2022-08-07T07:38:43.381Z,102272.59
2022-08-07T07:41:16.771Z,102279.34
2022-08-07T07:44:16.961Z,102275.38
2022-08-07T07:46:55.877Z,102280.38
2022-08-07T07:50:35.829Z,102269.53
2022-08-07T07:52:18.873Z,102267.16
2022-08-07T07:54:51.183Z,102267.38
2022-08-07T07:57:50.212Z,102262.19
2022-08-07T08:00:21.181Z,102252.53
2022-08-07T08:03:07.997Z,102252.53
2022-08-07T08:05:54.339Z,102258.31
2022-08-07T08:08:35.708Z,102248.16
2022-08-07T08:11:16.560Z,102253.22
2022-08-07T08:13:54.052Z,102248.06
2022-08-07T08:16:29.997Z,102238.25
2022-08-07T08:19:17.990Z,102242.72
2022-08-07T08:22:14.546Z,102235.56
2022-08-07T08:25:24.798Z,102244.06
2022-08-07T08:28:03.633Z,102247.47
2022-08-07T08:30:37.391Z,102241.09
2022-08-07T08:33:16.886Z,102234.94
2022-08-07T08:35:51.835Z,102242.38
2022-08-07T08:38:31.189Z,102238.13
2022-08-07T08:41:05.811Z,102241.09
2022-08-07T08:43:58.806Z,102239.38
2022-08-07T08:46:38.989Z,102232.78
2022-08-07T08:49:33.563Z,102235.97
2022-08-07T08:52:18.902Z,102228.59
2022-08-07T08:55:21.065Z,102231.13
2022-08-07T08:58:28.629Z,102232.06
2022-08-07T09:01:15.113Z,102222.94
2022-08-07T09:04:26.064Z,102231.72
2022-08-07T09:07:27.086Z,102228.94
2022-08-07T09:10:27.809Z,102224.00
2022-08-07T09:13:37.982Z,102229.03
2022-08-07T09:16:29.876Z,102227.13
2022-08-07T09:19:51.419Z,102226.53
2022-08-07T09:24:32.558Z,102223.25
2022-08-07T09:26:20.852Z,102227.03
2022-08-07T09:30:01.187Z,102221.63
2022-08-07T09:32:26.342Z,102222.88
2022-08-07T09:36:03.130Z,102217.34
2022-08-07T09:38:56.804Z,102219.56
2022-08-07T09:42:03.050Z,102220.66
2022-08-07T09:47:37.257Z,102206.25
2022-08-07T09:47:55.861Z,102201.03
2022-08-07T09:50:54.646Z,102208.91
2022-08-07T09:53:24.748Z,102193.44
2022-08-07T09:56:04.612Z,102190.53
2022-08-07T09:59:21.626Z,102183.63
2022-08-07T10:02:24.207Z,102184.84
2022-08-07T10:05:58.139Z,102184.97
2022-08-07T10:08:57.396Z,102185.81
2022-08-07T10:12:01.459Z,102183.44
2022-08-07T10:15:18.657Z,102174.91
2022-08-07T10:18:03.406Z,102168.00
2022-08-07T10:21:29.680Z,102176.09
2022-08-07T10:24:39.792Z,102166.31
2022-08-07T10:27:45.723Z,102162.56
2022-08-07T10:30:19.590Z,102162.34
2022-08-07T10:34:14.068Z,102162.41
2022-08-07T10:37:12.349Z,102164.06
2022-08-07T10:40:05.993Z,102156.84
2022-08-07T10:42:59.913Z,102153.91
2022-08-07T10:45:57.750Z,102148.16
2022-08-07T10:49:14.735Z,102142.66
2022-08-07T10:52:13.518Z,102143.16
2022-08-07T10:55:20.803Z,102133.81
2022-08-07T10:58:33.343Z,102127.84
2022-08-07T11:01:35.595Z,102128.41
2022-08-07T11:05:16.066Z,102120.00
2022-08-07T11:08:30.172Z,102121.44
2022-08-07T11:11:09.645Z,102116.03
2022-08-07T11:14:56.640Z,102123.97
2022-08-07T11:17:23.317Z,102123.88
2022-08-07T11:20:13.650Z,102112.31
2022-08-07T11:23:30.266Z,102104.84
2022-08-07T11:26:24.882Z,102107.72
2022-08-07T11:29:41.036Z,102110.03
2022-08-07T11:32:11.854Z,102113.69
2022-08-07T11:34:49.655Z,102106.81
2022-08-07T11:37:57.975Z,102095.88
2022-08-07T11:41:04.677Z,102089.91
2022-08-07T11:44:11.379Z,102094.84
2022-08-07T11:47:21.248Z,102091.78
2022-08-07T11:50:32.437Z,102090.31
2022-08-07T11:53:27.453Z,102085.34
2022-08-07T11:56:48.628Z,102078.50
2022-08-07T12:00:10.407Z,102077.09
2022-08-07T12:03:45.631Z,102081.81
2022-08-07T12:06:39.140Z,102081.31
2022-08-07T12:09:28.772Z,102078.66
2022-08-07T12:12:14.765Z,102072.72
2022-08-07T12:15:35.846Z,102066.75
2022-08-07T12:18:16.316Z,102069.56
2022-08-07T12:21:21.124Z,102064.16
2022-08-07T12:24:38.140Z,102057.94
2022-08-07T12:27:18.709Z,102061.66
2022-08-07T12:30:06.740Z,102053.41
2022-08-07T12:33:09.268Z,102067.38
2022-08-07T12:35:58.193Z,102062.06
2022-08-07T12:38:42.877Z,102059.44
2022-08-07T12:41:16.156Z,102061.31
2022-08-07T12:44:02.860Z,102057.66
2022-08-07T12:46:55.998Z,102042.09
2022-08-07T12:49:52.918Z,102038.66
2022-08-07T12:52:48.605Z,102039.69
2022-08-07T12:55:41.208Z,102035.53
2022-08-07T12:58:28.294Z,102028.34
2022-08-07T13:01:28.070Z,102040.38
2022-08-07T13:04:38.857Z,102032.31
2022-08-07T13:08:13.700Z,102021.81
2022-08-07T13:11:28.710Z,102015.69
2022-08-07T13:14:09.297Z,102014.00
2022-08-07T13:16:51.204Z,102016.72
2022-08-07T13:19:45.934Z,102008.19
2022-08-07T13:22:36.725Z,102007.63
2022-08-07T13:25:23.893Z,102012.69
2022-08-07T13:28:11.236Z,102000.28
2022-08-07T13:30:52.215Z,102005.16
2022-08-07T13:34:34.688Z,102007.25
2022-08-07T13:36:39.724Z,101991.56
2022-08-07T13:39:49.777Z,102001.53
2022-08-07T13:42:06.318Z,101997.13
2022-08-07T13:44:37.391Z,101996.38
2022-08-07T13:47:09.124Z,101993.09
2022-08-07T13:50:34.310Z,101997.81
2022-08-07T13:52:38.083Z,101986.94
2022-08-07T13:55:26.265Z,101991.22
2022-08-07T13:58:28.168Z,101976.09
2022-08-07T14:01:10.064Z,101979.41
2022-08-07T14:04:07.284Z,101969.31
2022-08-07T14:06:40.139Z,101979.19
2022-08-07T14:10:02.488Z,101967.94
2022-08-07T14:12:29.910Z,101971.78
2022-08-07T14:15:23.726Z,101972.06
2022-08-07T14:18:28.057Z,101965.34
2022-08-07T14:20:54.412Z,101965.16
2022-08-07T14:23:31.385Z,101968.78
2022-08-07T14:26:29.746Z,101962.22
2022-08-07T14:29:08.637Z,101964.78
2022-08-07T14:31:57.985Z,101964.66
2022-08-07T14:34:32.222Z,101960.06
2022-08-07T14:37:03.617Z,101955.63
2022-08-07T14:40:17.646Z,101952.59
2022-08-07T14:42:32.320Z,101956.16
2022-08-07T14:45:21.738Z,101955.66
2022-08-07T14:47:51.250Z,101957.19
2022-08-07T14:50:27.946Z,101954.72
2022-08-07T14:52:57.173Z,101949.44
2022-08-07T14:55:55.318Z,101951.78
2022-08-07T14:58:32.190Z,101949.91
2022-08-07T15:01:22.059Z,101947.44
2022-08-07T15:03:52.348Z,101943.22
2022-08-07T15:06:34.293Z,101939.91
2022-08-07T15:09:47.086Z,101948.88
2022-08-07T15:12:26.355Z,101941.00
2022-08-07T15:15:22.260Z,101949.38
2022-08-07T15:21:59.587Z,101944.00
2022-08-07T15:25:15.780Z,101946.84
2022-08-07T15:27:17.172Z,101952.25
2022-08-07T15:30:08.408Z,101949.88
2022-08-07T15:33:03.766Z,101940.50
2022-08-07T15:36:01.176Z,101937.56
2022-08-07T15:42:44.540Z,101924.72
2022-08-07T15:44:15.196Z,101930.94
2022-08-07T15:46:52.578Z,101925.72
2022-08-07T15:50:05.472Z,101921.00
2022-08-07T15:52:30.265Z,101916.59
2022-08-07T15:55:04.518Z,101916.50
2022-08-07T15:57:48.763Z,101916.59
2022-08-07T16:00:22.786Z,101913.47
2022-08-07T16:03:20.520Z,101910.63
2022-08-07T16:05:51.827Z,101910.19
2022-08-07T16:08:31.069Z,101908.75
2022-08-07T16:11:29.322Z,101906.63
2022-08-07T16:14:17.143Z,101904.84
2022-08-07T16:17:01.877Z,101896.16
2022-08-07T16:19:41.796Z,101899.78
2022-08-07T16:22:38.247Z,101900.16
2022-08-07T16:25:54.792Z,101897.41
2022-08-07T16:30:07.582Z,101897.69
2022-08-07T16:32:34.485Z,101892.22
2022-08-07T16:35:51.499Z,101897.97
2022-08-07T16:39:00.858Z,101894.38
2022-08-07T16:41:59.934Z,101890.69
2022-08-07T16:46:47.649Z,101891.91
2022-08-07T16:50:27.247Z,101888.00
2022-08-07T16:52:52.108Z,101896.69
2022-08-07T16:55:47.318Z,101892.13
2022-08-07T16:59:10.211Z,101891.63
2022-08-07T17:01:41.027Z,101898.88
2022-08-07T17:04:24.490Z,101888.84
2022-08-07T17:07:02.718Z,101893.75
2022-08-07T17:10:05.081Z,101897.00
2022-08-07T17:12:44.364Z,101891.28
2022-08-07T17:15:15.746Z,101891.44
2022-08-07T17:17:48.524Z,101889.03
2022-08-07T17:20:42.792Z,101897.47
2022-08-07T17:23:22.474Z,101896.53
2022-08-07T17:26:36.857Z,101903.91
2022-08-07T17:30:14.385Z,101904.88
2022-08-07T17:32:36.140Z,101912.13
2022-08-07T17:35:49.743Z,101905.84
2022-08-07T17:38:51.071Z,101897.97
2022-08-07T17:42:03.755Z,101901.97
2022-08-07T17:44:41.623Z,101904.75
2022-08-07T17:47:42.249Z,101902.94
2022-08-07T17:50:22.866Z,101910.84
2022-08-07T17:53:05.866Z,101899.59
2022-08-07T17:55:59.968Z,101893.47
2022-08-07T17:58:51.116Z,101897.78
2022-08-07T18:01:45.695Z,101897.66
2022-08-07T18:04:34.672Z,101899.13
2022-08-07T18:07:34.267Z,101900.94
2022-08-07T18:10:28.656Z,101897.19
2022-08-07T18:13:16.553Z,101892.63
2022-08-07T18:16:32.801Z,101898.16
2022-08-07T18:21:03.562Z,101899.97
2022-08-07T18:22:47.602Z,101898.97
2022-08-07T18:25:40.835Z,101902.97
2022-08-07T18:28:34.581Z,101909.75
2022-08-07T18:31:50.370Z,101903.09
2022-08-07T18:34:53.192Z,101903.75
2022-08-07T18:38:56.385Z,101909.31
2022-08-07T18:41:09.420Z,101910.69
2022-08-07T18:43:57.842Z,101914.28
2022-08-07T18:47:05.242Z,101911.84
2022-08-07T18:50:35.186Z,101908.66
2022-08-07T18:53:06.100Z,101921.16
2022-08-07T18:56:31.851Z,101918.31
2022-08-07T18:59:09.842Z,101927.53
2022-08-07T19:02:36.554Z,101926.16
2022-08-07T19:06:02.504Z,101929.06
2022-08-07T19:08:29.738Z,101926.13
2022-08-07T19:11:36.620Z,101937.59
2022-08-07T19:14:19.804Z,101932.06
2022-08-07T19:17:06.694Z,101933.66
2022-08-07T19:19:48.933Z,101940.81
2022-08-07T19:22:44.943Z,101942.13
2022-08-07T19:26:22.644Z,101940.41
2022-08-07T19:28:58.139Z,101943.91
2022-08-07T19:32:01.159Z,101949.50
2022-08-07T19:34:34.108Z,101954.47
2022-08-07T19:37:17.792Z,101952.03
2022-08-07T19:40:08.834Z,101957.47
2022-08-07T19:42:44.510Z,101961.31
2022-08-07T19:46:00.955Z,101957.91
2022-08-07T19:48:18.688Z,101958.38
2022-08-07T19:50:53.519Z,101955.03
2022-08-07T19:54:30.888Z,101952.94
2022-08-07T19:57:51.693Z,101957.03
2022-08-07T19:59:24.554Z,101965.63
2022-08-07T20:02:15.475Z,101954.34
2022-08-07T20:04:48.981Z,101969.97
2022-08-07T20:07:23.541Z,101973.31
2022-08-07T20:10:34.070Z,101965.03
2022-08-07T20:12:49.097Z,101974.19
2022-08-07T20:15:22.229Z,101969.72
2022-08-07T20:18:01.696Z,101978.88
2022-08-07T20:20:35.054Z,101978.69
2022-08-07T20:23:23.304Z,101978.88
2022-08-07T20:26:02.816Z,101981.66
2022-08-07T20:28:31.905Z,101978.06
2022-08-07T20:31:02.674Z,101975.50
2022-08-07T20:33:36.873Z,101973.84
2022-08-07T20:36:10.919Z,101984.47
2022-08-07T20:38:53.312Z,101985.94
2022-08-07T20:41:38.460Z,101981.06
2022-08-07T20:44:13.080Z,101978.53
2022-08-07T20:46:44.367Z,101978.53
2022-08-07T20:49:59.819Z,101979.81
2022-08-07T20:52:17.630Z,101987.19
2022-08-07T20:54:56.556Z,101986.34
2022-08-07T20:57:35.974Z,101987.41
2022-08-07T21:00:09.539Z,101986.31
2022-08-07T21:03:01.870Z,101986.28
2022-08-07T21:05:54.819Z,101987.16
2022-08-07T21:08:46.669Z,101983.94
2022-08-07T21:11:22.095Z,101985.03
2022-08-07T21:14:32.134Z,101987.59
2022-08-07T21:18:00.721Z,101981.84
2022-08-07T21:19:51.770Z,101983.34
2022-08-07T21:22:51.315Z,101984.34
2022-08-07T21:25:58.626Z,101987.13
2022-08-07T21:28:50.910Z,101980.31
2022-08-07T21:32:42.581Z,101990.38
2022-08-07T21:34:48.998Z,101984.22
2022-08-07T21:37:57.178Z,101980.41
2022-08-07T21:40:39.267Z,101991.28
2022-08-07T21:43:47.307Z,101985.50
2022-08-07T21:46:34.524Z,101986.56
2022-08-07T21:49:16.797Z,101986.38
2022-08-07T21:51:51.354Z,101986.69
2022-08-07T21:54:59.662Z,101996.38
2022-08-07T21:58:18.396Z,101993.25
2022-08-07T22:01:08.438Z,101987.81
2022-08-07T22:04:02.558Z,101991.03
2022-08-07T22:06:46.252Z,101987.72
2022-08-07T22:09:25.401Z,101985.72
2022-08-07T22:12:07.059Z,101997.91
2022-08-07T22:15:00.526Z,101997.94
2022-08-07T22:17:37.917Z,102002.34
2022-08-07T22:20:23.540Z,102003.81
2022-08-07T22:23:01.807Z,102000.41
2022-08-07T22:25:43.707Z,102006.34
2022-08-07T22:28:34.094Z,101999.44
2022-08-07T22:31:45.286Z,101998.06
2022-08-07T22:34:29.095Z,101999.59
2022-08-07T22:38:03.211Z,101999.38
2022-08-07T22:40:32.490Z,102004.69
2022-08-07T22:43:34.052Z,102002.53
2022-08-07T22:46:47.065Z,102002.75
2022-08-07T22:49:27.364Z,102004.13
2022-08-07T22:52:40.060Z,102001.38
2022-08-07T22:55:43.180Z,102004.50
2022-08-07T22:58:50.716Z,102003.25
2022-08-07T23:01:54.480Z,102002.03
2022-08-07T23:06:09.121Z,102009.09
2022-08-07T23:08:33.489Z,102010.06
2022-08-07T23:11:21.588Z,102018.72
2022-08-07T23:14:16.904Z,102023.72
2022-08-07T23:17:30.440Z,102023.63
2022-08-07T23:20:51.744Z,102015.19
2022-08-07T23:24:05.260Z,102019.88
2022-08-07T23:26:27.813Z,102021.28
2022-08-07T23:29:43.218Z,102025.25
2022-08-07T23:34:19.444Z,102019.50
2022-08-07T23:36:05.962Z,102011.63
2022-08-07T23:39:02.073Z,102025.56
2022-08-07T23:42:05.056Z,102022.06
2022-08-07T23:45:03.474Z,102013.91
2022-08-07T23:48:36.497Z,102018.56
2022-08-07T23:53:01.378Z,102024.44
2022-08-07T23:54:54.291Z,102014.06
2022-08-07T23:57:47.954Z,102020.50
